sensor_id;sensor_type;location;lat;lon;timestamp;P1;durP1;ratioP1;P2;durP2;ratioP2
8359;SDS011;4217;48.762;11.428;2022-08-27T00:03:53;8.30;;;7.70;;
8359;SDS011;4217;48.762;11.428;2022-08-27T00:13:55;9.40;;;8.73;;
8359;SDS011;4217;48.762;11.428;2022-08-27T00:23:57;9.40;;;8.80;;
8359;SDS011;4217;48.762;11.428;2022-08-27T00:33:59;7.83;;;7.33;;
8359;SDS011;4217;48.762;11.428;2022-08-27T00:44:01;8.60;;;8.10;;
8359;SDS011;4217;48.762;11.428;2022-08-27T00:54:03;8.70;;;8.10;;
8359;SDS011;4217;48.762;11.428;2022-08-27T01:04:07;9.33;;;8.63;;
8359;SDS011;4217;48.762;11.428;2022-08-27T01:14:09;7.43;;;7.03;;
8359;SDS011;4217;48.762;11.428;2022-08-27T01:24:26;10.03;;;9.33;;
8359;SDS011;4217;48.762;11.428;2022-08-27T01:34:32;9.77;;;8.97;;
8359;SDS011;4217;48.762;11.428;2022-08-27T01:54:57;9.77;;;9.13;;
8359;SDS011;4217;48.762;11.428;2022-08-27T02:04:59;10.73;;;10.03;;
8359;SDS011;4217;48.762;11.428;2022-08-27T02:15:01;11.07;;;10.07;;
8359;SDS011;4217;48.762;11.428;2022-08-27T02:25:03;11.10;;;10.30;;
8359;SDS011;4217;48.762;11.428;2022-08-27T02:35:10;10.87;;;10.00;;
8359;SDS011;4217;48.762;11.428;2022-08-27T02:45:12;11.80;;;11.20;;
8359;SDS011;4217;48.762;11.428;2022-08-27T02:55:15;11.80;;;11.20;;
8359;SDS011;4217;48.762;11.428;2022-08-27T03:05:18;10.13;;;9.43;;
8359;SDS011;4217;48.762;11.428;2022-08-27T03:15:19;9.13;;;8.63;;
8359;SDS011;4217;48.762;11.428;2022-08-27T03:25:21;9.57;;;8.87;;
8359;SDS011;4217;48.762;11.428;2022-08-27T03:35:23;8.53;;;8.03;;
8359;SDS011;4217;48.762;11.428;2022-08-27T03:45:25;8.70;;;8.10;;
8359;SDS011;4217;48.762;11.428;2022-08-27T03:55:27;7.53;;;7.07;;
8359;SDS011;4217;48.762;11.428;2022-08-27T04:05:29;8.10;;;7.60;;
8359;SDS011;4217;48.762;11.428;2022-08-27T04:15:30;8.33;;;7.83;;
8359;SDS011;4217;48.762;11.428;2022-08-27T04:25:32;8.03;;;7.50;;
8359;SDS011;4217;48.762;11.428;2022-08-27T04:35:34;8.53;;;7.93;;
8359;SDS011;4217;48.762;11.428;2022-08-27T04:45:45;8.33;;;7.83;;
8359;SDS011;4217;48.762;11.428;2022-08-27T04:55:49;8.77;;;8.17;;
8359;SDS011;4217;48.762;11.428;2022-08-27T05:05:58;8.50;;;7.90;;
8359;SDS011;4217;48.762;11.428;2022-08-27T05:16:07;8.30;;;7.80;;
8359;SDS011;4217;48.762;11.428;2022-08-27T05:26:11;8.47;;;7.97;;
8359;SDS011;4217;48.762;11.428;2022-08-27T05:36:14;7.17;;;6.77;;
8359;SDS011;4217;48.762;11.428;2022-08-27T05:46:18;8.03;;;7.63;;
8359;SDS011;4217;48.762;11.428;2022-08-27T05:56:22;8.17;;;7.67;;
8359;SDS011;4217;48.762;11.428;2022-08-27T06:06:26;7.90;;;7.50;;
8359;SDS011;4217;48.762;11.428;2022-08-27T06:16:27;8.33;;;7.83;;
8359;SDS011;4217;48.762;11.428;2022-08-27T06:26:29;8.53;;;8.03;;
8359;SDS011;4217;48.762;11.428;2022-08-27T06:36:32;7.63;;;7.13;;
8359;SDS011;4217;48.762;11.428;2022-08-27T06:46:36;7.73;;;7.30;;
8359;SDS011;4217;48.762;11.428;2022-08-27T06:56:40;6.87;;;6.47;;
8359;SDS011;4217;48.762;11.428;2022-08-27T07:06:42;8.27;;;7.73;;
8359;SDS011;4217;48.762;11.428;2022-08-27T07:16:44;11.80;;;11.20;;
8359;SDS011;4217;48.762;11.428;2022-08-27T07:26:48;8.37;;;7.97;;
8359;SDS011;4217;48.762;11.428;2022-08-27T07:36:50;5.33;;;4.93;;
8359;SDS011;4217;48.762;11.428;2022-08-27T07:46:52;4.40;;;4.10;;
8359;SDS011;4217;48.762;11.428;2022-08-27T07:56:58;4.68;;;4.32;;
8359;SDS011;4217;48.762;11.428;2022-08-27T08:07:00;5.70;;;4.45;;
8359;SDS011;4217;48.762;11.428;2022-08-27T08:17:03;4.47;;;4.28;;
8359;SDS011;4217;48.762;11.428;2022-08-27T08:27:11;5.20;;;4.90;;
8359;SDS011;4217;48.762;11.428;2022-08-27T08:37:12;5.57;;;5.13;;
8359;SDS011;4217;48.762;11.428;2022-08-27T08:47:24;5.22;;;4.93;;
8359;SDS011;4217;48.762;11.428;2022-08-27T08:57:32;4.75;;;4.43;;
8359;SDS011;4217;48.762;11.428;2022-08-27T09:17:51;5.40;;;4.95;;
8359;SDS011;4217;48.762;11.428;2022-08-27T09:27:55;6.10;;;5.50;;
8359;SDS011;4217;48.762;11.428;2022-08-27T09:38:00;6.78;;;6.10;;
8359;SDS011;4217;48.762;11.428;2022-08-27T09:48:06;5.93;;;5.53;;
8359;SDS011;4217;48.762;11.428;2022-08-27T09:58:23;7.20;;;5.95;;
8359;SDS011;4217;48.762;11.428;2022-08-27T10:18:54;5.15;;;4.80;;
8359;SDS011;4217;48.762;11.428;2022-08-27T10:29:05;6.45;;;6.05;;
8359;SDS011;4217;48.762;11.428;2022-08-27T10:50:05;14.98;;;14.38;;
8359;SDS011;4217;48.762;11.428;2022-08-27T11:00:16;6.57;;;6.00;;
8359;SDS011;4217;48.762;11.428;2022-08-27T11:10:21;9.73;;;9.00;;
8359;SDS011;4217;48.762;11.428;2022-08-27T11:20:28;11.53;;;10.50;;
8359;SDS011;4217;48.762;11.428;2022-08-27T11:31:01;11.23;;;10.33;;
8359;SDS011;4217;48.762;11.428;2022-08-27T11:51:46;8.53;;;7.87;;
8359;SDS011;4217;48.762;11.428;2022-08-27T12:02:09;9.38;;;8.77;;
8359;SDS011;4217;48.762;11.428;2022-08-27T12:33:32;5.93;;;5.53;;
8359;SDS011;4217;48.762;11.428;2022-08-27T12:43:39;6.07;;;5.68;;
8359;SDS011;4217;48.762;11.428;2022-08-27T12:53:49;7.22;;;6.63;;
8359;SDS011;4217;48.762;11.428;2022-08-27T13:04:15;7.03;;;6.43;;
8359;SDS011;4217;48.762;11.428;2022-08-27T13:14:22;6.90;;;6.40;;
8359;SDS011;4217;48.762;11.428;2022-08-27T13:24:27;6.82;;;6.43;;
8359;SDS011;4217;48.762;11.428;2022-08-27T13:34:32;7.82;;;7.22;;
8359;SDS011;4217;48.762;11.428;2022-08-27T13:44:39;9.40;;;8.70;;
8359;SDS011;4217;48.762;11.428;2022-08-27T13:54:45;8.07;;;7.57;;
8359;SDS011;4217;48.762;11.428;2022-08-27T14:15:20;8.32;;;7.82;;
8359;SDS011;4217;48.762;11.428;2022-08-27T14:25:28;8.40;;;7.80;;
8359;SDS011;4217;48.762;11.428;2022-08-27T14:35:31;8.35;;;7.68;;
8359;SDS011;4217;48.762;11.428;2022-08-27T14:45:34;9.03;;;8.33;;
8359;SDS011;4217;48.762;11.428;2022-08-27T14:55:39;10.43;;;8.97;;
8359;SDS011;4217;48.762;11.428;2022-08-27T15:05:46;6.27;;;5.87;;
8359;SDS011;4217;48.762;11.428;2022-08-27T15:15:49;6.20;;;5.80;;
8359;SDS011;4217;48.762;11.428;2022-08-27T15:25:53;6.47;;;6.07;;
8359;SDS011;4217;48.762;11.428;2022-08-27T15:35:54;6.40;;;5.90;;
8359;SDS011;4217;48.762;11.428;2022-08-27T15:45:56;6.17;;;5.87;;
8359;SDS011;4217;48.762;11.428;2022-08-27T15:55:57;6.87;;;6.27;;
8359;SDS011;4217;48.762;11.428;2022-08-27T16:05:59;8.53;;;7.83;;
8359;SDS011;4217;48.762;11.428;2022-08-27T16:16:05;9.07;;;8.47;;
8359;SDS011;4217;48.762;11.428;2022-08-27T16:26:08;8.70;;;8.10;;
8359;SDS011;4217;48.762;11.428;2022-08-27T16:36:10;9.20;;;8.50;;
8359;SDS011;4217;48.762;11.428;2022-08-27T16:46:11;8.23;;;7.63;;
8359;SDS011;4217;48.762;11.428;2022-08-27T16:56:13;9.77;;;9.17;;
8359;SDS011;4217;48.762;11.428;2022-08-27T17:06:20;8.27;;;7.67;;
8359;SDS011;4217;48.762;11.428;2022-08-27T17:16:24;10.57;;;9.87;;
8359;SDS011;4217;48.762;11.428;2022-08-27T17:26:28;9.47;;;8.87;;
8359;SDS011;4217;48.762;11.428;2022-08-27T17:36:32;10.30;;;9.50;;
8359;SDS011;4217;48.762;11.428;2022-08-27T17:46:34;8.27;;;7.77;;
8359;SDS011;4217;48.762;11.428;2022-08-27T17:56:35;6.77;;;6.33;;
8359;SDS011;4217;48.762;11.428;2022-08-27T18:06:40;4.80;;;4.50;;
8359;SDS011;4217;48.762;11.428;2022-08-27T18:16:41;5.03;;;4.73;;
8359;SDS011;4217;48.762;11.428;2022-08-27T18:26:43;4.67;;;4.37;;
8359;SDS011;4217;48.762;11.428;2022-08-27T18:36:45;5.00;;;4.70;;
8359;SDS011;4217;48.762;11.428;2022-08-27T18:46:46;6.53;;;6.13;;
8359;SDS011;4217;48.762;11.428;2022-08-27T18:56:48;5.30;;;5.00;;
8359;SDS011;4217;48.762;11.428;2022-08-27T19:06:51;7.60;;;7.00;;
8359;SDS011;4217;48.762;11.428;2022-08-27T19:16:52;5.50;;;5.10;;
8359;SDS011;4217;48.762;11.428;2022-08-27T19:26:56;6.47;;;6.07;;
8359;SDS011;4217;48.762;11.428;2022-08-27T19:36:58;7.00;;;6.60;;
8359;SDS011;4217;48.762;11.428;2022-08-27T19:47:01;6.03;;;5.43;;
8359;SDS011;4217;48.762;11.428;2022-08-27T19:57:03;5.83;;;5.40;;
8359;SDS011;4217;48.762;11.428;2022-08-27T20:07:05;6.37;;;5.97;;
8359;SDS011;4217;48.762;11.428;2022-08-27T20:17:08;6.03;;;5.63;;
8359;SDS011;4217;48.762;11.428;2022-08-27T20:27:09;6.70;;;6.30;;
8359;SDS011;4217;48.762;11.428;2022-08-27T20:37:11;7.07;;;6.67;;
8359;SDS011;4217;48.762;11.428;2022-08-27T20:47:12;7.17;;;6.77;;
8359;SDS011;4217;48.762;11.428;2022-08-27T20:57:14;5.47;;;5.07;;
8359;SDS011;4217;48.762;11.428;2022-08-27T21:07:16;6.10;;;5.70;;
8359;SDS011;4217;48.762;11.428;2022-08-27T21:17:20;5.70;;;5.30;;
8359;SDS011;4217;48.762;11.428;2022-08-27T21:27:22;6.20;;;5.80;;
8359;SDS011;4217;48.762;11.428;2022-08-27T21:37:24;5.97;;;5.57;;
8359;SDS011;4217;48.762;11.428;2022-08-27T21:47:25;5.33;;;5.03;;
8359;SDS011;4217;48.762;11.428;2022-08-27T21:57:30;6.90;;;6.60;;
8359;SDS011;4217;48.762;11.428;2022-08-27T22:07:31;7.07;;;6.67;;
8359;SDS011;4217;48.762;11.428;2022-08-27T22:17:33;6.60;;;6.20;;
8359;SDS011;4217;48.762;11.428;2022-08-27T22:27:35;7.00;;;6.70;;
8359;SDS011;4217;48.762;11.428;2022-08-27T22:37:37;7.17;;;6.77;;
8359;SDS011;4217;48.762;11.428;2022-08-27T22:47:39;7.33;;;6.93;;
8359;SDS011;4217;48.762;11.428;2022-08-27T22:57:41;6.87;;;6.50;;
8359;SDS011;4217;48.762;11.428;2022-08-27T23:07:43;7.13;;;6.73;;
8359;SDS011;4217;48.762;11.428;2022-08-27T23:17:45;8.00;;;7.43;;
8359;SDS011;4217;48.762;11.428;2022-08-27T23:27:47;7.13;;;6.73;;
8359;SDS011;4217;48.762;11.428;2022-08-27T23:37:49;7.53;;;7.03;;
8359;SDS011;4217;48.762;11.428;2022-08-27T23:47:51;7.87;;;7.47;;
8359;SDS011;4217;48.762;11.428;2022-08-27T23:57:53;8.03;;;7.53;;
